createdAt,value
2022-09-07T00:13:39.010Z,4.10
2022-09-07T00:38:55.650Z,3.80
2022-09-07T00:45:06.013Z,3.33
2022-09-07T01:04:16.441Z,3.47
2022-09-07T01:48:58.595Z,2.93
2022-09-07T01:54:35.011Z,3.03
2022-09-07T02:00:57.581Z,3.50
2022-09-07T02:39:11.651Z,3.23
2022-09-07T03:09:47.908Z,2.27
2022-09-07T03:15:24.063Z,2.70
2022-09-07T03:20:54.934Z,3.10
2022-09-07T03:32:23.103Z,3.10
2022-09-07T03:37:57.590Z,3.53
2022-09-07T03:44:19.087Z,3.00
2022-09-07T04:19:27.541Z,2.90
2022-09-07T05:03:25.786Z,2.40
2022-09-07T05:08:29.751Z,3.00
2022-09-07T05:13:35.854Z,3.00
2022-09-07T05:18:40.916Z,2.57
2022-09-07T05:23:45.117Z,2.90
2022-09-07T05:28:49.398Z,3.00
2022-09-07T05:39:21.917Z,3.30
2022-09-07T05:49:45.835Z,3.47
2022-09-07T05:54:50.073Z,2.97
2022-09-07T05:59:53.614Z,3.47
2022-09-07T06:04:58.524Z,2.80
2022-09-07T06:15:25.556Z,2.97
2022-09-07T06:20:30.487Z,3.20
2022-09-07T06:25:34.026Z,3.40
2022-09-07T06:30:37.561Z,3.30
2022-09-07T06:35:42.948Z,2.90
2022-09-07T06:40:46.419Z,3.10
2022-09-07T06:45:55.366Z,2.97
2022-09-07T06:51:03.008Z,3.43
2022-09-07T06:56:08.306Z,3.37
2022-09-07T07:01:15.087Z,3.30
2022-09-07T07:06:20.515Z,3.37
2022-09-07T07:11:24.017Z,3.33
2022-09-07T07:16:27.805Z,3.40
2022-09-07T07:21:48.586Z,3.17
2022-09-07T07:26:56.296Z,3.17
2022-09-07T07:31:59.753Z,3.23
2022-09-07T07:37:04.715Z,2.97
2022-09-07T07:42:08.290Z,2.87
2022-09-07T07:47:11.664Z,3.70
2022-09-07T07:57:40.389Z,3.33
2022-09-07T08:02:43.859Z,3.10
2022-09-07T08:07:48.761Z,2.97
2022-09-07T08:12:52.171Z,3.10
2022-09-07T08:17:55.598Z,3.10
2022-09-07T08:23:00.430Z,2.90
2022-09-07T08:28:04.621Z,2.83
2022-09-07T08:33:07.967Z,2.77
2022-09-07T08:38:13.093Z,2.73
2022-09-07T08:43:23.987Z,2.80
2022-09-07T08:48:33.673Z,2.40
2022-09-07T08:53:43.739Z,2.73
2022-09-07T08:58:50.304Z,2.13
2022-09-07T09:09:28.625Z,1.80
2022-09-07T09:14:40.942Z,1.73
2022-09-07T09:19:56.922Z,2.00
2022-09-07T09:25:14.673Z,1.90
2022-09-07T09:30:20.701Z,2.20
2022-09-07T09:35:30.148Z,2.20
2022-09-07T09:40:36.918Z,2.03
2022-09-07T09:56:40.381Z,2.20
2022-09-07T10:07:18.863Z,1.90
2022-09-07T10:12:30.985Z,2.20
2022-09-07T10:17:37.246Z,2.33
2022-09-07T10:22:41.116Z,2.00
2022-09-07T10:27:47.096Z,1.90
2022-09-07T10:33:01.571Z,2.20
2022-09-07T10:38:17.339Z,2.10
2022-09-07T10:43:31.269Z,2.00
2022-09-07T10:48:44.900Z,2.10
2022-09-07T11:05:10.400Z,1.87
2022-09-07T11:10:24.252Z,2.10
2022-09-07T11:15:32.962Z,2.10
2022-09-07T11:20:40.498Z,2.20
2022-09-07T11:25:52.323Z,2.00
2022-09-07T11:31:03.250Z,2.20
2022-09-07T11:36:12.440Z,2.33
2022-09-07T11:41:28.814Z,2.40
2022-09-07T11:46:40.548Z,2.37
2022-09-07T11:51:53.634Z,2.13
2022-09-07T11:57:03.018Z,2.10
2022-09-07T12:02:58.340Z,2.30
2022-09-07T12:08:25.001Z,2.10
2022-09-07T12:13:41.004Z,2.20
2022-09-07T12:19:19.166Z,2.10
2022-09-07T12:24:40.517Z,2.33
2022-09-07T12:29:45.430Z,2.00
2022-09-07T12:34:55.771Z,2.10
2022-09-07T12:40:33.377Z,2.03
2022-09-07T12:45:52.432Z,2.13
2022-09-07T12:51:01.077Z,2.17
2022-09-07T12:56:22.814Z,2.60
2022-09-07T13:01:37.738Z,2.33
2022-09-07T13:07:02.751Z,2.77
2022-09-07T13:17:56.670Z,2.53
2022-09-07T13:23:24.191Z,2.50
2022-09-07T13:28:33.185Z,2.60
2022-09-07T13:33:57.405Z,2.33
2022-09-07T13:39:02.608Z,2.40
2022-09-07T13:44:06.091Z,2.23
2022-09-07T13:49:19.694Z,2.53
2022-09-07T13:54:33.111Z,2.03
2022-09-07T13:59:37.547Z,2.30
2022-09-07T14:04:45.353Z,2.75
2022-09-07T14:09:50.804Z,2.50
2022-09-07T14:15:10.013Z,2.15
2022-09-07T14:20:15.831Z,2.10
2022-09-07T14:25:22.516Z,2.22
2022-09-07T14:30:35.221Z,2.58
2022-09-07T14:35:40.486Z,2.20
2022-09-07T14:40:46.251Z,1.95
2022-09-07T14:45:51.861Z,2.10
2022-09-07T14:51:13.103Z,2.10
2022-09-07T14:56:26.230Z,1.90
2022-09-07T15:01:39.094Z,1.83
2022-09-07T15:07:02.639Z,2.10
2022-09-07T15:12:30.024Z,2.00
2022-09-07T15:17:43.688Z,2.30
2022-09-07T15:22:47.498Z,2.10
2022-09-07T15:27:54.682Z,1.80
2022-09-07T15:32:58.658Z,2.28
2022-09-07T15:38:04.431Z,2.10
2022-09-07T15:43:20.323Z,2.05
2022-09-07T15:48:26.415Z,1.63
2022-09-07T15:58:58.432Z,2.20
2022-09-07T16:04:04.647Z,2.07
2022-09-07T16:09:21.249Z,2.47
2022-09-07T16:14:27.031Z,1.87
2022-09-07T16:19:34.636Z,1.87
2022-09-07T16:24:38.761Z,2.00
2022-09-07T16:29:44.108Z,1.87
2022-09-07T16:34:49.638Z,2.00
2022-09-07T16:39:53.545Z,1.93
2022-09-07T16:46:02.410Z,2.00
2022-09-07T16:50:23.466Z,2.07
2022-09-07T16:55:27.352Z,1.83
2022-09-07T17:00:34.046Z,2.00
2022-09-07T17:05:40.707Z,2.20
2022-09-07T17:10:44.409Z,2.00
2022-09-07T17:15:49.471Z,2.20
2022-09-07T17:20:58.609Z,2.40
2022-09-07T17:26:06.965Z,1.90
2022-09-07T17:32:23.979Z,2.30
2022-09-07T17:36:37.540Z,2.10
2022-09-07T17:41:41.404Z,2.20
2022-09-07T17:46:46.396Z,2.40
2022-09-07T17:51:50.034Z,2.70
2022-09-07T17:56:53.821Z,2.27
2022-09-07T18:01:59.382Z,2.57
2022-09-07T18:07:03.362Z,2.00
2022-09-07T18:12:07.446Z,2.20
2022-09-07T18:17:12.444Z,2.10
2022-09-07T18:22:18.469Z,2.00
2022-09-07T18:27:22.784Z,2.50
2022-09-07T18:32:28.759Z,2.73
2022-09-07T18:37:32.790Z,2.50
2022-09-07T18:42:36.883Z,2.30
2022-09-07T18:47:44.165Z,2.37
2022-09-07T18:53:04.014Z,2.20
2022-09-07T18:58:11.789Z,2.40
2022-09-07T19:03:19.271Z,2.33
2022-09-07T19:08:23.250Z,2.40
2022-09-07T19:13:27.579Z,2.40
2022-09-07T19:18:33.178Z,2.70
2022-09-07T19:23:38.684Z,2.87
2022-09-07T19:28:42.505Z,2.43
2022-09-07T19:33:48.013Z,2.50
2022-09-07T19:38:52.185Z,2.60
2022-09-07T19:43:56.509Z,2.63
2022-09-07T19:49:02.337Z,2.60
2022-09-07T19:54:07.086Z,2.20
2022-09-07T19:59:11.619Z,2.40
2022-09-07T20:04:23.942Z,1.97
2022-09-07T20:09:27.860Z,2.50
2022-09-07T20:14:34.411Z,2.47
2022-09-07T20:19:39.678Z,3.10
2022-09-07T20:24:44.170Z,2.13
2022-09-07T20:29:47.841Z,2.43
2022-09-07T20:34:53.369Z,2.83
2022-09-07T20:39:57.031Z,2.73
2022-09-07T20:45:00.674Z,2.97
2022-09-07T20:50:06.666Z,3.30
2022-09-07T20:55:11.073Z,3.00
2022-09-07T21:00:14.962Z,3.10
2022-09-07T21:05:20.100Z,3.30
2022-09-07T21:10:24.526Z,2.90
2022-09-07T21:15:29.446Z,2.90
2022-09-07T21:20:34.487Z,2.93
2022-09-07T21:25:45.123Z,3.07
2022-09-07T21:30:57.615Z,3.07
2022-09-07T21:36:06.601Z,2.93
2022-09-07T21:41:11.441Z,2.87
2022-09-07T21:46:17.448Z,3.10
2022-09-07T21:51:22.516Z,2.60
2022-09-07T21:56:26.894Z,2.23
2022-09-07T22:01:31.695Z,2.40
2022-09-07T22:06:37.863Z,2.50
2022-09-07T22:11:45.764Z,2.40
2022-09-07T22:16:49.574Z,2.60
2022-09-07T22:21:54.821Z,2.43
2022-09-07T22:26:58.515Z,2.60
2022-09-07T22:32:42.048Z,2.50
2022-09-07T22:37:47.166Z,2.40
2022-09-07T22:42:50.946Z,3.20
2022-09-07T22:47:54.442Z,3.30
2022-09-07T22:52:59.417Z,3.03
2022-09-07T22:58:02.969Z,3.20
2022-09-07T23:03:06.512Z,2.90
2022-09-07T23:08:11.572Z,3.00
2022-09-07T23:13:16.913Z,3.40
2022-09-07T23:18:22.518Z,3.73
2022-09-07T23:23:27.579Z,3.10
2022-09-07T23:28:31.795Z,3.70
2022-09-07T23:33:35.420Z,3.10
2022-09-07T23:38:40.546Z,3.40
2022-09-07T23:43:44.268Z,3.03
2022-09-07T23:48:48.978Z,2.87
2022-09-07T23:53:54.356Z,2.97
2022-09-07T23:58:57.838Z,3.00
